Time;durP1;ratioP1;P1;durP2;ratioP2;P2;SDS_P1;SDS_P2;PMS_P1;PMS_P2;Temp;Humidity;BMP_temperature;BMP_pressure;BME280_temperature;BME280_humidity;BME280_pressure;Samples;Min_cycle;Max_cycle;Signal;HPM_P1;HPM_P2
2022/03/29 00:00:36;;;;;;;18.85;8.07;;;9.70;61.60;;;;;;4986947;28;20023;-76
2022/03/29 00:03:03;;;;;;;15.82;7.65;;;9.70;61.90;;;;;;4986785;28;20033;-76
2022/03/29 00:05:29;;;;;;;18.17;7.28;;;9.70;61.80;;;;;;4988204;28;20034;-76
2022/03/29 00:07:55;;;;;;;15.73;7.63;;;9.70;62.00;;;;;;4987497;28;20030;-76
2022/03/29 00:10:20;;;;;;;17.90;8.30;;;9.70;61.90;;;;;;4986282;28;20033;-76
2022/03/29 00:12:46;;;;;;;15.65;7.88;;;9.70;61.80;;;;;;4980200;28;20061;-75
2022/03/29 00:15:12;;;;;;;17.48;8.27;;;9.70;61.80;;;;;;4987569;28;20029;-76
2022/03/29 00:17:38;;;;;;;15.85;7.70;;;9.60;62.00;;;;;;4985339;28;20027;-75
2022/03/29 00:20:04;;;;;;;17.30;8.25;;;9.60;62.50;;;;;;4986454;28;20318;-75
2022/03/29 00:22:30;;;;;;;14.18;7.88;;;9.60;62.80;;;;;;4986686;28;20302;-76
2022/03/29 00:24:55;;;;;;;14.98;7.43;;;9.50;63.40;;;;;;4985989;28;20026;-76
2022/03/29 00:27:21;;;;;;;14.20;8.40;;;9.50;64.00;;;;;;4985777;28;20033;-76
2022/03/29 00:29:47;;;;;;;16.55;7.32;;;9.40;64.60;;;;;;4982554;28;20038;-75
2022/03/29 00:32:12;;;;;;;19.40;8.95;;;9.30;65.00;;;;;;4986027;28;20026;-75
2022/03/29 00:34:40;;;;;;;15.75;8.40;;;9.30;65.00;;;;;;4989490;28;20456;-75
2022/03/29 00:37:06;;;;;;;15.25;8.07;;;9.30;64.80;;;;;;4986771;28;20026;-75
2022/03/29 00:39:32;;;;;;;15.45;7.90;;;9.30;64.50;;;;;;4988770;28;20467;-76
2022/03/29 00:41:59;;;;;;;16.35;7.75;;;9.30;64.50;;;;;;4981946;28;20042;-73
2022/03/29 00:44:31;;;;;;;17.92;8.43;;;9.30;64.30;;;;;;4983393;28;20022;-76
2022/03/29 00:46:58;;;;;;;15.85;7.88;;;9.30;64.30;;;;;;4989556;28;20065;-76
2022/03/29 00:49:24;;;;;;;16.85;8.13;;;9.30;64.00;;;;;;4981816;28;20022;-75
2022/03/29 00:51:50;;;;;;;16.88;8.05;;;9.30;63.70;;;;;;4986988;28;20077;-75
2022/03/29 00:54:16;;;;;;;19.00;8.65;;;9.30;63.70;;;;;;4987894;28;20022;-76
2022/03/29 00:56:42;;;;;;;16.00;7.95;;;9.30;63.70;;;;;;4986150;28;20030;-75
2022/03/29 00:59:07;;;;;;;16.35;7.88;;;9.30;64.40;;;;;;4985366;28;20091;-75
2022/03/29 01:01:33;;;;;;;15.23;8.30;;;9.30;65.30;;;;;;4983861;28;20036;-76
2022/03/29 01:03:59;;;;;;;19.02;8.88;;;9.30;66.20;;;;;;4985020;28;20018;-75
2022/03/29 01:06:25;;;;;;;16.35;9.35;;;9.20;67.00;;;;;;4988790;28;20502;-74
2022/03/29 01:08:50;;;;;;;21.40;9.13;;;9.20;67.20;;;;;;4983592;28;20022;-76
2022/03/29 01:11:17;;;;;;;16.63;9.00;;;9.10;67.40;;;;;;4986409;28;20030;-75
2022/03/29 01:13:42;;;;;;;16.90;8.82;;;9.20;67.60;;;;;;4982957;28;20033;-75
2022/03/29 01:18:55;;;;;;;17.85;9.10;;;9.10;67.70;;;;;;4986135;28;20501;-76
2022/03/29 01:21:25;;;;;;;17.00;9.20;;;9.10;68.00;;;;;;4988279;28;20104;-74
2022/03/29 01:23:51;;;;;;;18.25;9.05;;;9.00;68.20;;;;;;4987676;28;20026;-76
2022/03/29 01:26:17;;;;;;;19.38;8.80;;;9.00;68.30;;;;;;4982712;28;20050;-76
2022/03/29 01:28:44;;;;;;;20.77;10.52;;;9.00;68.30;;;;;;4984008;28;20431;-75
2022/03/29 01:31:11;;;;;;;20.27;9.95;;;9.00;68.80;;;;;;4983370;28;20034;-76
2022/03/29 01:33:39;;;;;;;16.48;8.70;;;8.90;69.10;;;;;;4982342;28;20046;-75
2022/03/29 01:36:05;;;;;;;18.50;8.32;;;8.90;69.60;;;;;;4980732;28;20023;-75
2022/03/29 01:38:31;;;;;;;17.05;8.60;;;8.80;70.00;;;;;;4981599;28;20029;-75
2022/03/29 01:41:01;;;;;;;19.55;8.50;;;8.80;69.80;;;;;;4986937;28;20022;-76
2022/03/29 01:43:27;;;;;;;18.15;9.25;;;8.80;69.90;;;;;;4983655;28;20029;-76
2022/03/29 01:45:53;;;;;;;15.85;7.95;;;8.70;70.00;;;;;;4986668;28;20034;-75
2022/03/29 01:48:19;;;;;;;14.88;7.78;;;8.60;70.50;;;;;;4980757;28;20030;-74
2022/03/29 01:50:45;;;;;;;17.20;8.00;;;8.60;70.60;;;;;;4982456;28;20034;-76
2022/03/29 01:53:25;;;;;;;18.48;8.13;;;8.60;70.70;;;;;;4983189;28;20274;-74
2022/03/29 01:55:58;;;;;;;15.77;8.52;;;8.50;70.60;;;;;;4983057;28;20422;-76
2022/03/29 01:58:29;;;;;;;16.87;8.77;;;8.50;71.00;;;;;;4983095;28;20030;-76
2022/03/29 02:00:55;;;;;;;15.95;8.45;;;8.40;71.50;;;;;;4980596;28;20103;-75
2022/03/29 02:03:21;;;;;;;16.85;8.60;;;8.40;71.80;;;;;;4984448;28;20082;-75
2022/03/29 02:05:46;;;;;;;19.08;8.77;;;8.30;72.30;;;;;;4986420;28;20483;-75
2022/03/29 02:08:12;;;;;;;17.13;8.15;;;8.30;72.50;;;;;;4985764;28;20072;-75
2022/03/29 02:10:38;;;;;;;18.65;9.00;;;8.30;72.70;;;;;;4986152;28;20057;-75
2022/03/29 02:13:04;;;;;;;22.10;9.30;;;8.20;72.70;;;;;;4983948;28;20104;-76
2022/03/29 02:15:30;;;;;;;19.85;8.15;;;8.30;73.00;;;;;;4983663;28;20503;-75
2022/03/29 02:17:56;;;;;;;15.32;8.23;;;8.30;73.10;;;;;;4980450;28;20473;-75
2022/03/29 02:20:23;;;;;;;18.63;9.38;;;8.30;73.30;;;;;;4987309;28;20062;-75
2022/03/29 02:22:50;;;;;;;18.85;9.07;;;8.30;73.30;;;;;;4982941;28;20141;-76
2022/03/29 02:25:16;;;;;;;16.55;8.85;;;8.30;73.00;;;;;;4968222;28;20420;-76
2022/03/29 02:27:44;;;;;;;18.40;9.48;;;8.40;72.90;;;;;;4987345;28;20026;-75
2022/03/29 02:30:12;;;;;;;20.50;9.32;;;8.30;72.80;;;;;;4985193;28;20483;-76
2022/03/29 02:32:38;;;;;;;21.25;9.25;;;8.30;72.70;;;;;;4984920;28;20026;-75
2022/03/29 02:35:05;;;;;;;17.10;8.70;;;8.30;73.00;;;;;;4985882;28;20034;-75
2022/03/29 02:37:31;;;;;;;16.35;8.77;;;8.30;73.30;;;;;;4985975;28;20058;-74
2022/03/29 02:39:56;;;;;;;19.25;9.73;;;8.30;73.20;;;;;;4982092;28;20101;-75
2022/03/29 02:42:22;;;;;;;18.95;8.65;;;8.30;72.90;;;;;;4983556;28;20495;-75
2022/03/29 02:44:48;;;;;;;18.42;8.52;;;8.30;72.90;;;;;;4985787;28;20113;-75
2022/03/29 02:47:14;;;;;;;16.33;8.65;;;8.20;73.10;;;;;;4983774;28;20031;-75
2022/03/29 02:49:39;;;;;;;15.93;8.68;;;8.20;72.90;;;;;;4985156;28;20058;-75
2022/03/29 02:52:05;;;;;;;22.05;9.82;;;8.20;72.60;;;;;;4980459;28;20113;-76
2022/03/29 02:54:31;;;;;;;20.40;8.95;;;8.20;73.00;;;;;;4982816;28;20026;-75
2022/03/29 02:56:57;;;;;;;17.42;8.43;;;8.20;73.00;;;;;;4983667;28;20035;-75
2022/03/29 02:59:23;;;;;;;17.98;9.48;;;8.20;72.80;;;;;;4982178;28;20101;-75
2022/03/29 03:01:48;;;;;;;19.75;8.27;;;8.20;72.80;;;;;;4981695;28;20022;-75
2022/03/29 03:04:14;;;;;;;19.67;8.85;;;8.20;73.30;;;;;;4988619;28;20112;-75
2022/03/29 03:06:41;;;;;;;20.50;10.15;;;8.20;72.80;;;;;;4991683;28;20030;-75
2022/03/29 03:09:08;;;;;;;17.88;9.10;;;8.20;72.70;;;;;;4984639;28;20023;-75
2022/03/29 03:11:35;;;;;;;21.45;9.07;;;8.20;72.60;;;;;;4988297;28;20406;-76
2022/03/29 03:14:01;;;;;;;15.70;8.15;;;8.20;72.70;;;;;;4987464;28;20022;-76
2022/03/29 03:16:26;;;;;;;19.63;8.90;;;8.20;72.40;;;;;;4988263;28;20042;-75
2022/03/29 03:18:52;;;;;;;20.98;9.07;;;8.20;72.60;;;;;;4989160;28;20032;-75
2022/03/29 03:21:18;;;;;;;17.73;8.65;;;8.20;72.70;;;;;;4986581;28;20066;-75
2022/03/29 03:23:43;;;;;;;16.73;8.20;;;8.20;72.50;;;;;;4985838;28;20030;-74
2022/03/29 03:26:09;;;;;;;18.48;7.75;;;8.20;72.10;;;;;;4987408;28;20089;-75
2022/03/29 03:28:35;;;;;;;18.25;8.77;;;8.20;72.80;;;;;;4988120;28;20483;-74
2022/03/29 03:31:01;;;;;;;16.95;8.60;;;8.20;74.30;;;;;;4989060;28;20652;-75
2022/03/29 03:33:26;;;;;;;15.88;8.15;;;8.20;75.40;;;;;;4988720;28;20054;-75
2022/03/29 03:35:52;;;;;;;16.00;8.65;;;8.20;76.00;;;;;;4989501;28;20110;-76
2022/03/29 03:38:18;;;;;;;17.35;8.85;;;8.10;76.90;;;;;;4986405;28;20061;-75
2022/03/29 03:40:44;;;;;;;19.45;9.57;;;8.00;77.30;;;;;;4985482;28;20468;-75
2022/03/29 03:43:10;;;;;;;16.35;9.80;;;7.90;77.90;;;;;;4985857;28;20038;-75
2022/03/29 03:45:35;;;;;;;22.48;10.02;;;7.90;78.70;;;;;;4986601;28;20438;-75
2022/03/29 03:48:03;;;;;;;25.13;11.00;;;7.80;79.50;;;;;;4987581;28;20033;-75
2022/03/29 03:50:29;;;;;;;27.13;10.05;;;7.70;80.30;;;;;;4981699;28;20060;-75
2022/03/29 03:52:54;;;;;;;21.35;9.82;;;7.70;80.90;;;;;;4988332;28;20027;-75
2022/03/29 03:55:23;;;;;;;19.70;9.90;;;7.60;81.40;;;;;;4988202;28;20125;-74
2022/03/29 03:57:49;;;;;;;17.23;9.85;;;7.60;82.00;;;;;;4988068;28;20026;-75
2022/03/29 04:00:16;;;;;;;17.60;10.57;;;7.60;82.40;;;;;;4989608;28;20177;-74
2022/03/29 04:02:42;;;;;;;17.48;9.70;;;7.50;82.60;;;;;;4984783;28;20030;-75
2022/03/29 04:05:12;;;;;;;17.92;9.95;;;7.50;83.20;;;;;;4989584;28;20065;-75
2022/03/29 04:07:38;;;;;;;19.10;10.18;;;7.50;83.80;;;;;;4978229;28;20505;-75
2022/03/29 04:10:05;;;;;;;20.25;10.77;;;7.50;84.40;;;;;;4987818;28;20037;-76
2022/03/29 04:12:31;;;;;;;19.58;10.43;;;7.40;84.90;;;;;;4985975;28;20129;-75
2022/03/29 04:14:56;;;;;;;21.75;10.23;;;7.40;85.70;;;;;;4984843;28;20463;-75
2022/03/29 04:17:22;;;;;;;18.10;9.60;;;7.40;86.20;;;;;;4986821;28;20038;-76
2022/03/29 04:19:47;;;;;;;20.83;10.73;;;7.30;86.70;;;;;;4983424;28;20040;-75
2022/03/29 04:22:13;;;;;;;19.85;10.88;;;7.30;87.50;;;;;;4985033;28;20137;-75
2022/03/29 04:24:39;;;;;;;20.65;9.75;;;7.30;87.80;;;;;;4985028;28;20030;-76
2022/03/29 04:27:05;;;;;;;18.25;9.45;;;7.20;88.60;;;;;;4985303;28;20058;-75
2022/03/29 04:29:31;;;;;;;21.45;10.13;;;7.20;89.70;;;;;;4987328;28;20420;-75
2022/03/29 04:31:56;;;;;;;21.80;9.95;;;7.20;89.60;;;;;;4990659;28;20041;-75
2022/03/29 04:34:22;;;;;;;21.55;9.75;;;7.20;89.70;;;;;;4988939;28;20089;-76
2022/03/29 04:36:48;;;;;;;21.88;9.48;;;7.20;89.40;;;;;;4981729;28;20026;-76
2022/03/29 04:39:13;;;;;;;21.92;10.52;;;7.20;88.90;;;;;;4990062;28;20109;-75
2022/03/29 04:41:39;;;;;;;20.35;9.48;;;7.20;88.90;;;;;;4991831;28;20069;-75
2022/03/29 04:44:05;;;;;;;18.20;9.52;;;7.20;87.70;;;;;;4987725;28;20021;-76
2022/03/29 04:46:31;;;;;;;19.83;9.23;;;7.20;86.90;;;;;;4986944;28;20046;-76
2022/03/29 04:48:57;;;;;;;23.67;10.35;;;7.30;87.00;;;;;;4985817;28;20102;-74
2022/03/29 04:51:23;;;;;;;24.80;10.55;;;7.20;86.90;;;;;;4986297;28;20093;-76
2022/03/29 04:53:49;;;;;;;19.73;10.25;;;7.30;86.80;;;;;;4987371;28;20038;-74
2022/03/29 04:56:14;;;;;;;21.50;10.27;;;7.30;86.90;;;;;;4984231;28;20027;-74
2022/03/29 04:58:40;;;;;;;22.17;10.02;;;7.30;86.70;;;;;;4983352;28;20069;-76
2022/03/29 05:01:05;;;;;;;20.38;10.35;;;7.30;86.80;;;;;;4986629;28;20026;-75
2022/03/29 05:03:32;;;;;;;19.92;9.90;;;7.20;87.40;;;;;;4985784;28;20030;-74
2022/03/29 05:05:57;;;;;;;20.08;10.18;;;7.30;87.50;;;;;;4986896;28;20474;-76
2022/03/29 05:08:23;;;;;;;23.00;10.02;;;7.30;88.80;;;;;;4985282;28;20121;-75
2022/03/29 05:10:49;;;;;;;18.70;10.13;;;7.30;90.20;;;;;;4987250;28;20030;-75
2022/03/29 05:13:16;;;;;;;26.27;10.93;;;7.20;90.50;;;;;;4981901;28;20037;-75
2022/03/29 05:15:41;;;;;;;23.38;10.35;;;7.20;90.80;;;;;;4986884;28;20054;-76
2022/03/29 05:18:07;;;;;;;20.13;9.70;;;7.20;91.30;;;;;;4987033;28;20069;-75
2022/03/29 05:20:33;;;;;;;20.77;10.07;;;7.20;91.70;;;;;;4985572;28;20031;-75
2022/03/29 05:23:01;;;;;;;21.13;10.32;;;7.10;91.70;;;;;;4985691;28;20022;-76
2022/03/29 05:25:27;;;;;;;19.80;10.75;;;7.10;92.00;;;;;;4985165;28;20494;-75
2022/03/29 05:27:55;;;;;;;18.38;9.80;;;7.10;92.10;;;;;;4988038;28;20397;-75
2022/03/29 05:30:21;;;;;;;23.45;10.38;;;7.20;92.30;;;;;;4986777;28;20033;-75
2022/03/29 05:32:47;;;;;;;20.55;9.60;;;7.20;92.30;;;;;;4985684;28;20030;-80
2022/03/29 05:35:14;;;;;;;25.10;10.63;;;7.20;92.40;;;;;;4985963;28;20026;-75
2022/03/29 05:37:41;;;;;;;17.70;10.35;;;7.30;92.60;;;;;;4985937;28;20018;-76
2022/03/29 05:40:09;;;;;;;23.90;10.85;;;7.30;92.70;;;;;;4986839;28;20022;-75
2022/03/29 05:42:38;;;;;;;24.67;10.40;;;7.30;92.70;;;;;;4985885;28;20030;-75
2022/03/29 05:45:05;;;;;;;23.17;10.63;;;7.40;92.80;;;;;;4985586;28;20031;-75
2022/03/29 05:50:15;;;;;;;;;;;7.50;92.30;;;;;;4983879;28;20446;-76
2022/03/29 05:52:40;;;;;;;22.88;10.10;;;7.60;91.80;;;;;;4985269;28;19910;-76
2022/03/29 05:55:06;;;;;;;26.48;10.13;;;7.60;91.40;;;;;;4986892;28;20471;-75
2022/03/29 05:57:32;;;;;;;23.00;11.23;;;7.60;90.90;;;;;;4985698;28;20101;-75
2022/03/29 05:59:58;;;;;;;26.23;10.80;;;7.70;90.50;;;;;;4977163;28;20482;-77
2022/03/29 06:02:24;;;;;;;31.00;10.65;;;7.80;90.20;;;;;;4983448;28;20704;-76
2022/03/29 06:04:50;;;;;;;26.17;11.40;;;7.80;89.50;;;;;;4984758;28;20027;-76
2022/03/29 06:07:17;;;;;;;28.00;9.82;;;7.90;89.20;;;;;;4987443;28;20363;-76
2022/03/29 06:09:43;;;;;;;26.42;10.30;;;8.00;88.50;;;;;;5013970;28;20025;-76
2022/03/29 06:12:09;;;;;;;26.88;10.93;;;8.10;87.80;;;;;;4976480;28;20109;-76
2022/03/29 06:14:35;;;;;;;26.73;11.43;;;8.10;88.00;;;;;;4979939;28;20019;-76
2022/03/29 06:17:00;;;;;;;21.45;10.45;;;8.20;88.40;;;;;;4980599;28;20026;-75
2022/03/29 06:19:27;;;;;;;18.58;10.35;;;8.20;88.20;;;;;;4978086;28;20117;-76
2022/03/29 06:21:53;;;;;;;21.42;10.85;;;8.30;88.10;;;;;;4973158;28;20519;-76
2022/03/29 06:24:18;;;;;;;22.92;10.80;;;8.40;87.80;;;;;;4983395;28;20121;-76
2022/03/29 06:26:44;;;;;;;27.38;11.40;;;8.40;87.70;;;;;;4986651;28;20441;-76
2022/03/29 06:29:11;;;;;;;25.98;11.23;;;8.50;87.40;;;;;;4985656;28;20026;-76
2022/03/29 06:31:38;;;;;;;20.05;11.35;;;8.60;87.40;;;;;;4983605;28;20036;-75
2022/03/29 06:34:05;;;;;;;24.83;10.77;;;8.60;86.60;;;;;;4984795;28;20278;-75
2022/03/29 06:36:31;;;;;;;29.90;10.82;;;8.70;86.20;;;;;;4974716;28;20062;-75
2022/03/29 06:38:56;;;;;;;25.92;11.48;;;8.70;85.50;;;;;;4977508;28;20121;-76
2022/03/29 06:41:22;;;;;;;22.63;10.35;;;8.70;85.70;;;;;;4976355;28;20490;-75
2022/03/29 06:43:50;;;;;;;19.90;9.35;;;8.80;85.20;;;;;;4984138;28;20085;-75
2022/03/29 06:46:16;;;;;;;18.10;9.55;;;8.80;83.80;;;;;;4977982;28;20050;-76
2022/03/29 06:48:43;;;;;;;19.58;9.35;;;8.80;82.60;;;;;;4975288;28;20449;-76
2022/03/29 06:51:09;;;;;;;24.00;9.43;;;8.80;82.50;;;;;;4978878;28;20026;-75
2022/03/29 06:53:38;;;;;;;28.98;10.60;;;8.80;82.40;;;;;;4982028;28;20114;-76
2022/03/29 06:56:04;;;;;;;23.55;10.02;;;8.80;82.50;;;;;;4977686;28;20620;-76
2022/03/29 06:58:30;;;;;;;15.75;8.68;;;8.80;81.80;;;;;;4981311;28;20132;-75
2022/03/29 07:00:57;;;;;;;18.83;9.57;;;8.90;81.00;;;;;;4981764;28;20196;-76
2022/03/29 07:03:23;;;;;;;16.05;9.25;;;9.00;80.40;;;;;;4980612;28;20018;-75
2022/03/29 07:05:49;;;;;;;18.90;9.60;;;9.10;80.20;;;;;;4977634;28;20045;-75
2022/03/29 07:08:18;;;;;;;17.42;8.90;;;9.20;79.90;;;;;;4977210;28;20039;-75
2022/03/29 07:13:28;;;;;;;20.27;9.73;;;9.30;79.10;;;;;;4984279;28;20057;-75
2022/03/29 07:15:54;;;;;;;17.23;9.15;;;9.40;78.60;;;;;;4983100;28;20042;-74
2022/03/29 07:18:20;;;;;;;21.65;9.48;;;9.50;78.40;;;;;;4978608;28;20046;-74
2022/03/29 07:20:45;;;;;;;25.38;10.25;;;9.60;78.00;;;;;;4976118;28;20072;-73
2022/03/29 07:23:12;;;;;;;19.88;9.80;;;9.70;77.30;;;;;;4979816;28;20023;-73
2022/03/29 07:25:37;;;;;;;23.23;11.07;;;9.70;77.10;;;;;;4984754;28;20101;-73
2022/03/29 07:28:04;;;;;;;15.73;9.13;;;9.90;76.80;;;;;;4983348;28;20122;-73
2022/03/29 07:30:33;;;;;;;14.32;9.23;;;10.00;76.60;;;;;;4984845;28;20077;-75
2022/03/29 07:32:59;;;;;;;21.15;10.55;;;10.10;76.30;;;;;;4984424;28;20636;-73
2022/03/29 07:35:28;;;;;;;18.33;9.40;;;10.20;75.80;;;;;;4982029;28;20062;-73
2022/03/29 07:37:55;;;;;;;19.60;10.40;;;10.30;75.70;;;;;;4975140;28;20030;-73
2022/03/29 07:40:24;;;;;;;19.33;10.73;;;10.40;75.00;;;;;;4984119;28;20558;-74
2022/03/29 07:42:50;;;;;;;22.10;10.98;;;10.40;74.60;;;;;;4983379;28;20338;-74
2022/03/29 07:45:17;;;;;;;21.75;10.60;;;10.50;74.30;;;;;;4977695;28;20553;-73
2022/03/29 07:47:43;;;;;;;27.98;10.88;;;10.60;74.10;;;;;;4980828;28;20157;-74
2022/03/29 07:52:42;;;;;;;24.02;11.30;;;10.80;74.40;;;;;;4986976;28;20058;-74
2022/03/29 07:55:11;;;;;;;25.33;11.85;;;10.90;72.70;;;;;;4994191;28;20038;-75
2022/03/29 07:57:38;;;;;;;17.58;10.90;;;10.90;72.30;;;;;;4990016;28;20094;-75
2022/03/29 08:00:31;;;;;;;22.92;11.95;;;10.90;72.10;;;;;;5007304;28;20054;-74
2022/03/29 08:02:53;;;;;;;32.15;11.75;;;11.00;72.10;;;;;;4992480;28;20261;-74
2022/03/29 08:05:19;;;;;;;24.83;10.38;;;11.10;71.50;;;;;;4993326;28;20038;-72
2022/03/29 08:07:45;;;;;;;25.50;11.40;;;11.20;70.90;;;;;;4991246;28;20057;-73
2022/03/29 08:10:12;;;;;;;21.08;11.80;;;11.30;71.00;;;;;;4987371;28;20034;-72
2022/03/29 08:12:39;;;;;;;19.58;11.00;;;11.40;70.70;;;;;;4989260;28;20088;-72
2022/03/29 08:15:06;;;;;;;23.52;11.48;;;11.50;70.50;;;;;;4988749;28;20038;-72
2022/03/29 08:17:33;;;;;;;24.05;11.55;;;11.60;70.50;;;;;;4990218;28;20026;-72
2022/03/29 08:19:59;;;;;;;25.25;12.40;;;11.80;70.70;;;;;;4984083;28;20449;-72
2022/03/29 08:22:24;;;;;;;29.15;12.07;;;11.90;70.10;;;;;;4984678;28;20117;-72
2022/03/29 08:24:50;;;;;;;21.13;11.80;;;11.90;70.00;;;;;;4994299;28;20098;-72
2022/03/29 08:27:16;;;;;;;23.20;11.32;;;12.00;69.40;;;;;;4987049;28;20518;-72
2022/03/29 08:29:41;;;;;;;20.48;11.27;;;12.00;69.20;;;;;;4990152;28;20027;-72
2022/03/29 08:32:07;;;;;;;23.25;11.13;;;12.10;68.90;;;;;;4992963;28;20495;-73
2022/03/29 08:34:33;;;;;;;18.60;10.10;;;12.10;68.80;;;;;;4989223;28;20093;-72
2022/03/29 08:36:59;;;;;;;28.48;11.45;;;12.20;68.90;;;;;;4996419;28;20027;-72
2022/03/29 08:39:24;;;;;;;26.58;11.05;;;12.30;68.50;;;;;;4994438;28;20038;-72
2022/03/29 08:42:02;;;;;;;21.15;10.95;;;12.40;68.90;;;;;;4991638;28;20061;-71
2022/03/29 08:44:30;;;;;;;23.30;11.57;;;12.40;68.70;;;;;;4992350;28;20041;-72
2022/03/29 08:46:55;;;;;;;20.85;11.15;;;12.50;68.90;;;;;;4989686;28;20054;-73
2022/03/29 08:49:22;;;;;;;18.45;10.80;;;12.60;69.30;;;;;;4989137;28;20104;-72
2022/03/29 08:51:49;;;;;;;21.10;11.10;;;12.70;69.30;;;;;;4989254;28;20153;-72
2022/03/29 08:54:15;;;;;;;21.50;11.27;;;12.70;69.20;;;;;;4991114;28;20125;-71
2022/03/29 08:56:41;;;;;;;27.08;11.85;;;12.80;69.30;;;;;;4988992;28;20033;-72
2022/03/29 08:59:07;;;;;;;19.83;11.25;;;12.90;69.20;;;;;;4989934;28;20022;-71
2022/03/29 09:01:33;;;;;;;23.42;11.85;;;12.90;69.20;;;;;;4986116;28;20029;-71
2022/03/29 09:04:07;;;;;;;24.30;11.35;;;13.00;69.20;;;;;;4979471;28;20099;-72
2022/03/29 09:06:54;;;;;;;23.48;11.45;;;13.00;69.00;;;;;;4990917;28;20037;-72
2022/03/29 09:09:29;;;;;;;26.15;11.23;;;13.10;68.60;;;;;;4992684;28;20045;-72
2022/03/29 09:11:56;;;;;;;26.90;12.35;;;13.30;68.40;;;;;;4985402;28;20475;-72
2022/03/29 09:14:23;;;;;;;22.55;12.77;;;13.50;68.20;;;;;;4988852;28;20030;-72
2022/03/29 09:16:51;;;;;;;23.80;12.05;;;13.60;67.80;;;;;;4988226;28;20081;-71
2022/03/29 09:19:18;;;;;;;21.35;11.18;;;13.70;67.60;;;;;;4986977;28;20026;-71
2022/03/29 09:21:45;;;;;;;28.70;12.45;;;13.90;67.00;;;;;;4987599;28;20117;-74
2022/03/29 09:24:14;;;;;;;24.90;11.75;;;14.00;66.90;;;;;;4980167;28;20618;-71
2022/03/29 09:26:41;;;;;;;24.58;11.52;;;14.10;66.60;;;;;;4988392;28;20426;-71
2022/03/29 09:29:17;;;;;;;25.25;12.05;;;14.30;66.10;;;;;;4990855;28;20050;-71
2022/03/29 09:31:44;;;;;;;19.70;12.02;;;14.40;65.90;;;;;;4983127;28;20026;-70
2022/03/29 09:34:15;;;;;;;26.10;11.70;;;14.50;66.20;;;;;;4987874;28;20105;-73
2022/03/29 09:36:52;;;;;;;26.45;11.43;;;14.70;65.00;;;;;;4983737;28;20070;-72
2022/03/29 09:39:36;;;;;;;24.38;12.23;;;14.90;64.80;;;;;;4990183;28;20089;-73
2022/03/29 09:42:14;;;;;;;20.70;10.70;;;15.00;63.80;;;;;;4984198;28;20014;-73
2022/03/29 09:44:44;;;;;;;18.85;11.75;;;15.10;63.20;;;;;;4987082;28;20038;-71
2022/03/29 09:47:15;;;;;;;18.88;10.63;;;15.20;61.10;;;;;;4988751;28;20033;-72
2022/03/29 09:50:11;;;;;;;20.67;10.05;;;15.30;61.00;;;;;;4984897;28;20026;-71
2022/03/29 09:52:37;;;;;;;17.70;9.00;;;15.40;59.70;;;;;;4985842;28;20034;-72
2022/03/29 09:55:13;;;;;;;19.08;9.45;;;15.60;58.50;;;;;;4987381;28;20038;-72
2022/03/29 09:57:46;;;;;;;20.23;9.70;;;15.90;57.40;;;;;;4983605;28;20015;-72
2022/03/29 10:00:35;;;;;;;15.63;8.70;;;16.20;55.70;;;;;;4984780;28;20112;-72
2022/03/29 10:03:05;;;;;;;13.25;7.57;;;16.40;54.00;;;;;;4982602;28;20031;-72
2022/03/29 10:05:33;;;;;;;14.40;7.80;;;16.70;52.60;;;;;;4987190;28;20026;-71
2022/03/29 10:10:50;;;;;;;14.68;7.47;;;17.00;50.50;;;;;;4988783;28;20044;-73
2022/03/29 10:13:17;;;;;;;14.15;7.82;;;17.10;48.80;;;;;;4988576;28;20031;-72
2022/03/29 10:15:45;;;;;;;13.27;7.72;;;17.20;46.50;;;;;;4988644;28;20022;-73
2022/03/29 10:18:11;;;;;;;12.55;7.97;;;17.30;45.40;;;;;;4990925;28;20022;-73
2022/03/29 10:20:37;;;;;;;11.05;7.75;;;17.30;45.00;;;;;;4986267;28;20030;-72
2022/03/29 10:23:05;;;;;;;16.02;8.50;;;17.40;45.00;;;;;;4990678;28;20497;-73
2022/03/29 10:25:31;;;;;;;15.45;7.80;;;17.50;45.40;;;;;;4987551;28;20081;-72
2022/03/29 10:27:59;;;;;;;14.90;8.27;;;17.50;45.50;;;;;;4980614;28;20220;-73
2022/03/29 10:30:42;;;;;;;13.30;7.80;;;17.50;46.00;;;;;;4985579;28;20034;-75
2022/03/29 10:33:41;;;;;;;12.35;7.30;;;17.60;45.50;;;;;;4987942;28;20133;-73
2022/03/29 10:36:09;;;;;;;11.18;7.07;;;17.60;45.50;;;;;;4934521;28;20050;-75
2022/03/29 10:38:47;;;;;;;13.60;8.40;;;17.70;45.10;;;;;;4984996;28;20035;-73
2022/03/29 10:41:28;;;;;;;12.80;7.75;;;17.80;45.20;;;;;;4993255;28;20040;-73
2022/03/29 10:43:54;;;;;;;12.63;8.10;;;17.90;45.30;;;;;;4983681;28;20061;-72
2022/03/29 10:46:25;;;;;;;15.70;8.88;;;18.00;45.00;;;;;;4991191;28;20061;-73
2022/03/29 10:49:16;;;;;;;13.48;8.32;;;18.10;44.10;;;;;;4991475;28;20089;-72
2022/03/29 10:51:41;;;;;;;14.98;8.30;;;18.10;43.40;;;;;;5005260;28;20088;-73
2022/03/29 10:54:29;;;;;;;13.15;7.72;;;18.20;42.90;;;;;;4983411;28;20418;-72
2022/03/29 10:56:57;;;;;;;15.50;7.35;;;18.30;42.30;;;;;;4990190;28;20026;-72
2022/03/29 10:59:23;;;;;;;12.52;7.88;;;18.30;42.70;;;;;;4986740;28;20056;-72
2022/03/29 11:02:13;;;;;;;14.68;8.05;;;18.30;43.40;;;;;;4975825;28;20039;-72
2022/03/29 11:05:02;;;;;;;12.25;7.95;;;18.30;42.70;;;;;;4987157;28;20042;-72
2022/03/29 11:07:28;;;;;;;15.75;8.00;;;18.40;43.10;;;;;;4992516;28;20038;-72
2022/03/29 11:10:19;;;;;;;14.63;8.30;;;18.40;42.90;;;;;;4989239;28;20038;-73
2022/03/29 11:12:49;;;;;;;13.70;8.25;;;18.40;42.70;;;;;;4985181;28;20034;-74
2022/03/29 11:15:24;;;;;;;13.52;8.20;;;18.50;41.30;;;;;;4984700;28;20035;-72
2022/03/29 11:17:50;;;;;;;15.63;9.25;;;18.40;41.70;;;;;;4986438;28;20497;-73
2022/03/29 11:20:29;;;;;;;13.85;7.93;;;18.50;41.90;;;;;;4986682;28;20650;-73
2022/03/29 11:22:57;;;;;;;15.27;8.30;;;18.50;42.00;;;;;;5004583;28;20116;-71
2022/03/29 11:25:23;;;;;;;15.00;7.75;;;18.60;41.60;;;;;;4987259;28;20490;-72
2022/03/29 11:27:49;;;;;;;17.20;8.60;;;18.70;41.60;;;;;;4991564;28;20026;-72
2022/03/29 11:30:15;;;;;;;16.15;8.27;;;18.70;42.00;;;;;;4988108;28;20027;-73
2022/03/29 11:32:43;;;;;;;13.07;8.10;;;18.80;41.80;;;;;;4987919;28;20038;-73
2022/03/29 11:35:11;;;;;;;14.23;8.07;;;18.80;40.80;;;;;;4991900;28;20026;-74
2022/03/29 11:37:43;;;;;;;13.23;7.70;;;18.80;41.00;;;;;;4996111;28;20079;-74
2022/03/29 11:40:15;;;;;;;15.18;8.55;;;18.90;40.90;;;;;;4989544;28;20022;-70
2022/03/29 11:42:47;;;;;;;17.67;8.70;;;19.00;41.00;;;;;;4987355;28;20364;-71
2022/03/29 11:45:14;;;;;;;14.55;7.82;;;19.00;40.50;;;;;;5002588;28;20034;-71
2022/03/29 11:47:55;;;;;;;15.18;7.72;;;19.10;40.60;;;;;;4994712;28;20040;-71
2022/03/29 11:50:32;;;;;;;13.88;7.97;;;19.00;40.40;;;;;;4984932;28;20026;-70
2022/03/29 11:52:58;;;;;;;13.07;7.95;;;19.00;40.40;;;;;;5002289;28;20593;-71
2022/03/29 11:55:25;;;;;;;15.05;7.72;;;19.00;40.30;;;;;;4988950;28;20039;-69
2022/03/29 11:57:52;;;;;;;13.13;7.43;;;19.00;40.60;;;;;;4988598;28;20500;-71
2022/03/29 12:00:27;;;;;;;16.98;7.90;;;19.00;40.70;;;;;;4991221;28;20034;-71
2022/03/29 12:02:53;;;;;;;14.88;7.68;;;19.00;40.70;;;;;;4993594;28;20395;-71
2022/03/29 12:05:27;;;;;;;12.20;7.28;;;19.00;40.70;;;;;;4998619;28;20133;-71
2022/03/29 12:07:59;;;;;;;12.15;7.65;;;19.10;40.50;;;;;;4989643;28;20100;-72
2022/03/29 12:10:29;;;;;;;14.30;7.57;;;19.10;41.10;;;;;;4986650;28;20034;-72
2022/03/29 12:12:55;;;;;;;13.10;7.10;;;19.00;40.70;;;;;;4986322;28;20037;-70
2022/03/29 12:15:22;;;;;;;15.07;7.18;;;19.00;40.80;;;;;;4986570;28;20043;-71
2022/03/29 12:17:52;;;;;;;12.93;7.40;;;19.00;40.90;;;;;;4985947;28;20510;-72
2022/03/29 12:20:38;;;;;;;15.82;7.85;;;18.80;41.00;;;;;;4988949;28;20061;-73
2022/03/29 12:23:15;;;;;;;14.20;8.05;;;18.90;40.70;;;;;;4991256;28;20126;-73
2022/03/29 12:25:44;;;;;;;13.85;6.47;;;18.70;41.20;;;;;;4982994;28;20027;-73
2022/03/29 12:28:13;;;;;;;11.25;7.40;;;18.70;41.10;;;;;;4984756;28;20030;-73
2022/03/29 12:30:39;;;;;;;10.65;7.68;;;18.70;41.10;;;;;;4987553;28;20030;-72
2022/03/29 12:33:05;;;;;;;15.32;7.95;;;18.70;41.60;;;;;;4983703;28;20488;-72
2022/03/29 12:35:31;;;;;;;12.68;6.97;;;18.80;41.00;;;;;;4990873;28;20026;-72
2022/03/29 12:38:05;;;;;;;14.45;7.35;;;18.90;40.60;;;;;;4990383;28;20033;-72
2022/03/29 12:40:32;;;;;;;12.20;6.82;;;18.90;40.60;;;;;;4986462;28;20037;-73
2022/03/29 12:43:02;;;;;;;14.18;7.57;;;18.90;40.50;;;;;;4986649;28;20080;-72
2022/03/29 12:45:28;;;;;;;13.95;7.40;;;18.90;40.70;;;;;;4985279;28;20463;-71
2022/03/29 12:47:56;;;;;;;15.63;8.02;;;18.90;40.40;;;;;;4998533;28;20133;-72
2022/03/29 12:50:22;;;;;;;14.77;6.50;;;18.90;40.60;;;;;;4987052;28;20031;-72
2022/03/29 12:52:48;;;;;;;16.52;6.85;;;19.00;40.50;;;;;;4991325;28;20117;-71
2022/03/29 12:55:18;;;;;;;13.30;7.65;;;19.10;40.50;;;;;;4990805;28;20030;-71